Nearby METAR Reports


Data Updates Approximately Every Four (4) Hours

METAR is the international standard code format for hourly surface weather observations which is analogous to the SA coding currently used in the US. The acronym roughly translates from French as Aviation Routine Weather Report. SPECI is merely the code name given to METAR formatted products which are issued on a special non-routine basis as dictated by changing meteorological conditions. The SPECI acronym roughly translates as Aviation Selected Special Weather Report.
Source: NOAA-National Centers For Environmental Information.

KSLH - Cheboygan, Michigan, USA
Distance from Lake Huron Weather: W 9mi
Updated: 05/17/2022 12:55am
Clear
Clear
 Wind from W
Wind: W 8 mph , 13 km/h
Temperature: 45°F , 7°C
Wind Chill: 41°F , 5°C
Dew Point: 36°F , 2°C
Humidity: 71%
Barometer: 29.88 inHg , 1011.9 hPa
Clouds: Clear
Visibility: 10 miles , 16 km
2022/05/17 04:55 KSLH 170455Z AUTO 28007KT 10SM CLR 07/02 A2988 RMK AO2
KMCD - Mackinac Island, Michigan, USA
Distance from Lake Huron Weather: NW 19mi
Updated: 05/17/2022 12:55am
Clear
Clear
 Wind from NW
Wind: NW 9 mph , 15 km/h
Temperature: 43°F , 6°C
Wind Chill: 38°F , 3°C
Dew Point: 36°F , 2°C
Humidity: 76%
Barometer: 29.88 inHg , 1011.9 hPa
Clouds: Clear
Visibility: 10 miles , 16 km
2022/05/17 04:55 KMCD 170455Z AUTO 31008KT 10SM CLR 06/02 A2988 RMK AO2 T00620020
 
KDRM - Drummond Is, Michigan, USA
Distance from Lake Huron Weather: NE 36mi
Updated: 05/17/2022 12:55am
Clear
Clear
 Wind from W
Wind: W 7 mph , 11 km/h
Temperature: 43°F , 6°C
Wind Chill: 39°F , 4°C
Dew Point: 37°F , 3°C
Humidity: 81%
Barometer: 29.84 inHg , 1010.5 hPa
Clouds: Clear
Visibility: 10 miles , 16 km
2022/05/17 04:55 KDRM 170455Z AUTO 28006KT 10SM CLR 06/03 A2984 RMK AO2 T00600031
KPZQ - Rogers City, Michigan, USA
Distance from Lake Huron Weather: SE 31mi
Updated: 05/17/2022 12:55am
Partly cloudy
Partly cloudy
 Wind from W
Wind: W 8 mph , 13 km/h
Temperature: 45°F , 7°C
Wind Chill: 41°F , 5°C
Dew Point: 36°F , 2°C
Humidity: 71%
Barometer: 29.87 inHg , 1011.5 hPa
Clouds: Partly cloudy
Visibility: 10 miles , 16 km
Cloud details: Partly cloudy 5500 ft
2022/05/17 04:55 KPZQ 170455Z AUTO 28007KT 10SM SCT055 07/02 A2987 RMK AO2 T00670016
 
CYAM - Sault Ste Marie, Ontario, Canada
Distance from Lake Huron Weather: N 56mi
Updated: 05/17/2022 12:00am
Mostly cloudy
Mostly cloudy
 Wind from WNW
Wind: WNW 14 mph , 22 km/h
Temperature: 39°F , 4°C
Wind Chill: 31°F , -1°C
Dew Point: 36°F , 2°C
Humidity: 87%
Barometer: 29.86 inHg , 1011.2 hPa
Clouds: Mostly cloudy
Visibility: 20 miles , 32 km
Cloud details: Partly cloudy 5200 ft
Mostly cloudy 25000 ft
2022/05/17 04:00 CYAM 170400Z 30012KT 20SM SCT052 BKN250 04/02 A2986 RMK SC4CI2 SLP118
KANJ - Sault Ste Marie, Michigan, USA
Distance from Lake Huron Weather: N 56mi
Updated: 05/17/2022 12:55am
Few Clouds
Few Clouds
 Wind from W
Wind: W 6 mph , 9 km/h
Temperature: 39°F , 4°C
Wind Chill: 35°F , 2°C
Dew Point: 34°F , 1°C
Humidity: 81%
Barometer: 29.85 inHg , 1010.8 hPa
Clouds: Few Clouds
Visibility: 10 miles , 16 km
Cloud details: Few Clouds 4900 ft
2022/05/17 04:55 KANJ 170455Z AUTO 28005KT 10SM FEW049 04/01 A2985 RMK AO2 SLP111 T00440011 401670039
 
KGLR - Gaylord, Michigan, USA
Distance from Lake Huron Weather: SSW 48mi
Updated: 05/17/2022 12:53am
Partly cloudy
Partly cloudy
 Wind from varies
Wind: varies 3 mph , 6 km/h
Temperature: 45°F , 7°C
Dew Point: 34°F , 1°C
Humidity: 66%
Barometer: 29.90 inHg , 1012.5 hPa
Clouds: Partly cloudy
Visibility: 10 miles , 16 km
Cloud details: Partly cloudy 3200 ft
2022/05/17 04:53 KGLR 170453Z AUTO VRB03KT 10SM SCT032 07/01 A2990 RMK AO2 SLP127 T00720006 402000072 PWINO $
KPLN - Pellston, Michigan, USA
Distance from Lake Huron Weather: WSW 24mi
Updated: 05/17/2022 12:54am
Clear
Clear
 Wind from WNW
Wind: WNW 7 mph , 11 km/h
Temperature: 43°F , 6°C
Wind Chill: 39°F , 4°C
Dew Point: 36°F , 2°C
Humidity: 76%
Barometer: 29.90 inHg , 1012.5 hPa
Clouds: Clear
Visibility: 10 miles , 16 km
2022/05/17 04:54 KPLN 170454Z AUTO 30006KT 10SM CLR 06/02 A2990 RMK AO2 SLP127 T00610022 401940061